Terminal Aerodrome Forecast
Issued by NWS

Home | Current Version | Previous Version | Text Only | Print | Product List | Glossary On
Versions: 1 2 3 4 5 6 7 8 9 10 11 12 13 14 15 16 17 18 19 20
167
FTUS43 KDVN 270858 AAB
TAFBRL
TAF AMD
KBRL 270858Z 2709/2806 11006KT P6SM VCSH SCT050 OVC090
     FM271000 14007KT P6SM VCSH OVC040
     FM271500 18010G18KT P6SM BKN050 PROB30 2720/2724 4SM TSRA
      BKN035CB
     FM280000 16008KT P6SM VCTS BKN050CB=

USA.gov is the U.S. government's official web portal to all federal, state and local government web resources and services.